createdAt,value
2022-11-13T00:00:26.267Z,54.74
2022-11-13T00:03:12.460Z,55.01
2022-11-13T00:06:01.229Z,55.06
2022-11-13T00:08:48.342Z,54.86
2022-11-13T00:11:34.228Z,54.64
2022-11-13T00:14:20.822Z,54.68
2022-11-13T00:17:07.238Z,54.67
2022-11-13T00:19:53.757Z,54.60
2022-11-13T00:22:40.195Z,54.58
2022-11-13T00:25:27.595Z,54.43
2022-11-13T00:28:14.598Z,54.39
2022-11-13T00:31:02.477Z,54.56
2022-11-13T00:36:56.162Z,54.22
2022-11-13T00:39:42.309Z,54.50
2022-11-13T00:42:29.550Z,54.16
2022-11-13T00:45:16.080Z,54.09
2022-11-13T00:48:02.390Z,54.26
2022-11-13T00:50:48.556Z,54.47
2022-11-13T00:53:35.139Z,54.37
2022-11-13T00:56:22.004Z,54.40
2022-11-13T00:59:08.213Z,54.21
2022-11-13T01:01:56.447Z,54.10
2022-11-13T01:04:43.233Z,54.28
2022-11-13T01:07:29.663Z,53.89
2022-11-13T01:10:15.989Z,54.05
2022-11-13T01:13:02.360Z,53.99
2022-11-13T01:15:48.906Z,53.72
2022-11-13T01:18:35.830Z,53.98
2022-11-13T01:21:25.362Z,53.98
2022-11-13T01:24:11.818Z,54.00
2022-11-13T01:26:58.312Z,53.72
2022-11-13T01:29:44.926Z,53.51
2022-11-13T01:32:31.115Z,54.13
2022-11-13T01:35:17.076Z,54.62
2022-11-13T01:38:03.504Z,54.06
2022-11-13T01:40:49.963Z,53.57
2022-11-13T01:43:38.417Z,53.99
2022-11-13T01:46:46.147Z,53.25
2022-11-13T01:49:36.983Z,53.36
2022-11-13T01:52:27.525Z,53.39
2022-11-13T01:55:19.023Z,53.70
2022-11-13T01:58:07.997Z,53.50
2022-11-13T02:00:54.479Z,53.49
2022-11-13T02:03:40.638Z,53.28
2022-11-13T02:06:31.000Z,53.40
2022-11-13T02:09:20.721Z,53.63
2022-11-13T02:12:12.780Z,53.59
2022-11-13T02:15:01.127Z,53.75
2022-11-13T02:17:56.682Z,53.58
2022-11-13T02:21:01.906Z,53.69
2022-11-13T02:24:15.865Z,53.46
2022-11-13T02:27:08.945Z,53.46
2022-11-13T02:29:55.269Z,53.56
2022-11-13T02:32:46.694Z,53.37
2022-11-13T02:35:35.841Z,53.61
2022-11-13T02:38:22.488Z,53.43
2022-11-13T02:41:08.941Z,53.43
2022-11-13T02:43:54.926Z,53.06
2022-11-13T02:46:41.238Z,53.07
2022-11-13T02:49:27.801Z,53.23
2022-11-13T02:52:14.197Z,52.98
2022-11-13T02:55:00.278Z,53.09
2022-11-13T02:57:46.781Z,53.07
2022-11-13T03:00:33.025Z,52.92
2022-11-13T03:03:47.834Z,53.32
2022-11-13T03:06:25.520Z,53.40
2022-11-13T03:09:11.854Z,53.04
2022-11-13T03:11:57.921Z,53.02
2022-11-13T03:14:44.023Z,53.37
2022-11-13T03:17:35.149Z,53.18
2022-11-13T03:20:21.371Z,52.92
2022-11-13T03:23:08.186Z,53.12
2022-11-13T03:25:54.618Z,53.21
2022-11-13T03:28:40.653Z,53.12
2022-11-13T03:31:26.720Z,52.90
2022-11-13T03:34:13.080Z,53.07
2022-11-13T03:36:59.721Z,53.12
2022-11-13T03:39:45.952Z,52.92
2022-11-13T03:42:32.106Z,53.18
2022-11-13T03:45:18.031Z,53.02
2022-11-13T03:48:04.724Z,53.26
2022-11-13T03:50:54.838Z,52.75
2022-11-13T03:53:41.362Z,53.16
2022-11-13T03:56:27.424Z,53.01
2022-11-13T03:59:13.643Z,52.99
2022-11-13T04:02:02.417Z,52.78
2022-11-13T04:04:48.775Z,53.00
2022-11-13T04:07:35.338Z,53.13
2022-11-13T04:10:22.164Z,53.20
2022-11-13T04:13:08.933Z,53.22
2022-11-13T04:15:55.245Z,53.16
2022-11-13T04:18:41.492Z,53.33
2022-11-13T04:21:27.970Z,53.07
2022-11-13T04:24:14.349Z,53.14
2022-11-13T04:27:00.786Z,53.26
2022-11-13T04:29:47.151Z,53.02
2022-11-13T04:32:33.643Z,52.89
2022-11-13T04:35:19.734Z,53.17
2022-11-13T04:38:06.345Z,52.84
2022-11-13T04:41:12.555Z,52.66
2022-11-13T04:43:59.147Z,52.26
2022-11-13T04:46:45.577Z,51.91
2022-11-13T04:49:32.172Z,51.88
2022-11-13T04:52:18.643Z,52.05
2022-11-13T04:55:05.526Z,51.77
2022-11-13T04:57:55.995Z,51.82
2022-11-13T05:00:42.382Z,51.71
2022-11-13T05:03:28.807Z,51.64
2022-11-13T05:06:15.247Z,51.63
2022-11-13T05:09:03.203Z,51.26
2022-11-13T05:11:49.016Z,51.21
2022-11-13T05:14:36.761Z,51.36
2022-11-13T05:17:23.400Z,51.67
2022-11-13T05:20:10.309Z,51.32
2022-11-13T05:22:56.659Z,51.12
2022-11-13T05:25:43.134Z,51.49
2022-11-13T05:28:30.000Z,51.20
2022-11-13T05:31:16.987Z,51.31
2022-11-13T05:34:06.175Z,51.28
2022-11-13T05:36:52.395Z,51.21
2022-11-13T05:39:38.517Z,51.24
2022-11-13T05:42:25.637Z,51.53
2022-11-13T05:45:11.926Z,51.22
2022-11-13T05:47:58.243Z,51.36
2022-11-13T05:50:44.512Z,51.44
2022-11-13T05:53:31.129Z,51.40
2022-11-13T05:56:26.467Z,51.10
2022-11-13T05:59:12.871Z,51.13
2022-11-13T06:01:59.317Z,51.51
2022-11-13T06:04:45.573Z,51.29
2022-11-13T06:07:31.959Z,51.13
2022-11-13T06:10:18.133Z,51.41
2022-11-13T06:13:04.253Z,50.89
2022-11-13T06:15:50.649Z,51.29
2022-11-13T06:18:38.500Z,50.76
2022-11-13T06:21:26.511Z,50.18
2022-11-13T06:24:13.473Z,50.16
2022-11-13T06:27:00.994Z,50.54
2022-11-13T06:29:47.242Z,50.72
2022-11-13T06:32:33.982Z,50.77
2022-11-13T06:35:20.411Z,50.59
2022-11-13T06:38:14.433Z,50.56
2022-11-13T06:41:01.662Z,50.18
2022-11-13T06:43:49.173Z,50.55
2022-11-13T06:46:35.611Z,50.38
2022-11-13T06:49:21.810Z,49.97
2022-11-13T06:52:07.987Z,50.13
2022-11-13T06:54:54.271Z,50.00
2022-11-13T06:57:40.266Z,49.63
2022-11-13T07:00:26.730Z,49.60
2022-11-13T07:03:17.397Z,49.39
2022-11-13T07:06:06.348Z,49.62
2022-11-13T07:08:53.041Z,50.00
2022-11-13T07:11:39.482Z,50.24
2022-11-13T07:14:26.635Z,50.35
2022-11-13T07:17:12.967Z,49.80
2022-11-13T07:19:59.212Z,49.73
2022-11-13T07:22:45.417Z,49.83
2022-11-13T07:25:32.257Z,50.16
2022-11-13T07:28:18.932Z,50.26
2022-11-13T07:31:07.446Z,50.35
2022-11-13T07:33:53.865Z,50.51
2022-11-13T07:36:40.028Z,49.76
2022-11-13T07:39:26.080Z,49.79
2022-11-13T07:42:12.835Z,49.68
2022-11-13T07:44:59.417Z,49.51
2022-11-13T07:47:45.836Z,49.47
2022-11-13T07:50:34.732Z,49.64
2022-11-13T07:53:22.048Z,49.33
2022-11-13T07:56:08.403Z,49.58
2022-11-13T07:58:54.464Z,49.78
2022-11-13T08:01:40.965Z,49.71
2022-11-13T08:04:27.384Z,49.74
2022-11-13T08:07:14.085Z,49.86
2022-11-13T08:10:00.415Z,50.25
2022-11-13T08:12:47.506Z,50.76
2022-11-13T08:15:34.499Z,50.69
2022-11-13T08:18:22.165Z,52.60
2022-11-13T08:21:14.531Z,50.86
2022-11-13T08:24:01.150Z,50.77
2022-11-13T08:26:47.603Z,50.89
2022-11-13T08:29:34.119Z,50.66
2022-11-13T08:32:22.831Z,51.06
2022-11-13T08:35:09.420Z,50.98
2022-11-13T08:38:01.234Z,51.18
2022-11-13T08:40:48.135Z,51.18
2022-11-13T08:43:34.937Z,51.24
2022-11-13T08:46:21.013Z,51.26
2022-11-13T08:49:07.797Z,50.96
2022-11-13T08:51:54.106Z,50.56
2022-11-13T08:54:42.681Z,50.73
2022-11-13T08:57:31.609Z,50.76
2022-11-13T09:00:18.143Z,50.86
2022-11-13T09:03:04.480Z,50.41
2022-11-13T09:05:50.818Z,50.88
2022-11-13T09:08:38.944Z,51.06
2022-11-13T09:11:28.866Z,52.00
2022-11-13T09:14:15.548Z,51.38
2022-11-13T09:17:01.956Z,51.48
2022-11-13T09:19:48.109Z,51.09
2022-11-13T09:22:35.547Z,55.66
2022-11-13T09:25:23.785Z,53.10
2022-11-13T09:28:11.720Z,51.77
2022-11-13T09:30:58.426Z,51.40
2022-11-13T09:33:44.655Z,51.78
2022-11-13T09:36:31.870Z,53.59
2022-11-13T09:39:18.116Z,52.98
2022-11-13T09:42:10.466Z,52.09
2022-11-13T09:45:03.781Z,52.50
2022-11-13T09:47:52.752Z,51.27
2022-11-13T09:50:40.597Z,50.79
2022-11-13T09:53:33.932Z,50.92
2022-11-13T09:56:38.861Z,50.75
2022-11-13T09:59:31.640Z,50.86
2022-11-13T10:02:27.812Z,49.61
2022-11-13T10:05:23.963Z,49.30
2022-11-13T10:08:38.585Z,49.07
2022-11-13T10:11:42.324Z,48.83
2022-11-13T10:14:34.552Z,48.63
2022-11-13T10:17:44.584Z,48.56
2022-11-13T10:20:43.789Z,49.25
2022-11-13T10:23:35.374Z,50.42
2022-11-13T10:26:24.730Z,48.96
2022-11-13T10:29:18.018Z,50.65
2022-11-13T10:32:20.895Z,51.61
2022-11-13T10:35:08.362Z,52.03
2022-11-13T10:38:07.792Z,51.83
2022-11-13T10:41:07.018Z,51.76
2022-11-13T10:43:59.683Z,51.92
2022-11-13T10:46:46.035Z,52.45
2022-11-13T10:49:32.094Z,53.81
2022-11-13T10:52:23.697Z,52.96
2022-11-13T10:55:40.582Z,51.74
2022-11-13T10:58:27.776Z,51.64
2022-11-13T11:01:16.372Z,52.65
2022-11-13T11:04:27.646Z,53.14
2022-11-13T11:07:23.339Z,52.32
2022-11-13T11:10:21.932Z,52.12
2022-11-13T11:13:20.580Z,51.57
2022-11-13T11:16:09.455Z,52.42
2022-11-13T11:19:00.354Z,52.22
2022-11-13T11:21:50.333Z,51.96
2022-11-13T11:24:56.815Z,52.31
2022-11-13T11:28:28.461Z,51.74
2022-11-13T11:31:30.628Z,51.33
2022-11-13T11:34:46.040Z,51.94
2022-11-13T11:37:42.182Z,51.27
2022-11-13T11:40:36.385Z,50.66
2022-11-13T11:43:42.004Z,50.29
2022-11-13T11:46:29.793Z,51.09
2022-11-13T11:49:16.884Z,51.52
2022-11-13T11:52:32.617Z,51.37
2022-11-13T11:55:24.915Z,51.62
2022-11-13T11:58:36.842Z,51.82
2022-11-13T12:01:42.862Z,52.52
2022-11-13T12:04:51.225Z,53.25
2022-11-13T12:07:55.919Z,54.29
2022-11-13T12:11:11.841Z,54.22
2022-11-13T12:14:13.554Z,54.47
2022-11-13T12:17:16.791Z,55.15
2022-11-13T12:20:28.072Z,55.30
2022-11-13T12:23:44.736Z,54.13
2022-11-13T12:26:40.123Z,53.98
2022-11-13T12:29:48.381Z,54.90
2022-11-13T12:32:50.308Z,55.63
2022-11-13T12:35:38.362Z,54.33
2022-11-13T12:38:33.961Z,54.18
2022-11-13T12:41:38.636Z,54.75
2022-11-13T12:44:30.930Z,54.10
2022-11-13T12:47:17.978Z,54.60
2022-11-13T12:50:22.934Z,54.86
2022-11-13T12:53:13.502Z,54.46
2022-11-13T12:56:04.022Z,53.74
2022-11-13T12:59:29.254Z,53.82
2022-11-13T13:02:29.835Z,53.50
2022-11-13T13:05:53.536Z,53.55
2022-11-13T13:08:42.863Z,53.94
2022-11-13T13:11:49.946Z,53.40
2022-11-13T13:14:54.430Z,53.42
2022-11-13T13:17:41.258Z,53.52
2022-11-13T13:20:41.209Z,53.59
2022-11-13T13:23:33.642Z,53.00
2022-11-13T13:26:28.232Z,53.00
2022-11-13T13:29:23.792Z,53.05
2022-11-13T13:32:43.169Z,53.48
2022-11-13T13:35:48.193Z,53.13
2022-11-13T13:39:02.179Z,52.95
2022-11-13T13:42:07.102Z,52.68
2022-11-13T13:45:11.575Z,53.04
2022-11-13T13:47:58.869Z,53.28
2022-11-13T13:50:47.547Z,53.44
2022-11-13T13:53:36.799Z,53.74
2022-11-13T13:56:24.279Z,54.23
2022-11-13T13:59:15.813Z,54.59
2022-11-13T14:02:03.570Z,54.73
2022-11-13T14:04:55.465Z,54.37
2022-11-13T14:07:46.384Z,55.18
2022-11-13T14:10:32.690Z,54.82
2022-11-13T14:13:28.702Z,54.64
2022-11-13T14:16:15.511Z,54.98
2022-11-13T14:19:05.721Z,55.85
2022-11-13T14:22:05.037Z,55.67
2022-11-13T14:24:55.779Z,55.95
2022-11-13T14:27:41.876Z,55.32
2022-11-13T14:30:30.644Z,55.98
2022-11-13T14:33:22.761Z,56.05
2022-11-13T14:36:09.357Z,55.92
2022-11-13T14:38:56.799Z,56.48
2022-11-13T14:42:41.596Z,56.54
2022-11-13T14:45:30.302Z,56.24
2022-11-13T14:48:29.033Z,56.52
2022-11-13T14:51:30.103Z,56.48
2022-11-13T14:55:00.001Z,56.31
2022-11-13T14:57:49.058Z,56.82
2022-11-13T15:00:39.284Z,56.56
2022-11-13T15:03:26.399Z,56.20
2022-11-13T15:06:17.429Z,56.26
2022-11-13T15:09:06.968Z,56.40
2022-11-13T15:11:53.227Z,56.91
2022-11-13T15:14:41.715Z,56.99
2022-11-13T15:17:28.029Z,56.85
2022-11-13T15:20:24.172Z,57.24
2022-11-13T15:23:15.538Z,57.08
2022-11-13T15:26:01.841Z,56.79
2022-11-13T15:28:49.036Z,57.20
2022-11-13T15:31:37.781Z,57.05
2022-11-13T15:34:24.281Z,56.74
2022-11-13T15:37:16.181Z,56.85
2022-11-13T15:40:02.811Z,56.58
2022-11-13T15:42:49.092Z,56.68
2022-11-13T15:45:38.661Z,56.77
2022-11-13T15:48:27.363Z,57.11
2022-11-13T15:51:46.596Z,56.20
2022-11-13T15:54:36.990Z,56.83
2022-11-13T15:57:28.703Z,57.06
2022-11-13T16:00:17.402Z,56.40
2022-11-13T16:03:11.305Z,56.77
2022-11-13T16:05:59.736Z,56.71
2022-11-13T16:08:50.869Z,56.71
2022-11-13T16:11:37.005Z,56.73
2022-11-13T16:14:25.041Z,56.90
2022-11-13T16:17:20.393Z,56.55
2022-11-13T16:20:10.418Z,57.06
2022-11-13T16:22:56.693Z,57.09
2022-11-13T16:25:43.978Z,56.92
2022-11-13T16:28:31.696Z,56.89
2022-11-13T16:31:24.781Z,57.37
2022-11-13T16:34:10.920Z,56.96
2022-11-13T16:36:57.823Z,56.89
2022-11-13T16:39:45.247Z,56.75
2022-11-13T16:42:32.202Z,56.74
2022-11-13T16:45:19.552Z,56.85
2022-11-13T16:48:12.087Z,56.52
2022-11-13T16:50:58.232Z,56.80
2022-11-13T16:53:44.845Z,56.77
2022-11-13T16:56:31.265Z,56.86
2022-11-13T16:59:18.373Z,56.53
2022-11-13T17:02:13.281Z,56.96
2022-11-13T17:04:59.408Z,56.92
2022-11-13T17:07:46.236Z,56.80
2022-11-13T17:10:33.501Z,57.27
2022-11-13T17:13:19.720Z,57.09
2022-11-13T17:16:05.959Z,57.40
2022-11-13T17:18:55.912Z,57.61
2022-11-13T17:21:44.469Z,57.70
2022-11-13T17:24:31.007Z,57.46
2022-11-13T17:27:18.417Z,58.18
2022-11-13T17:30:05.589Z,57.58
2022-11-13T17:32:51.887Z,57.65
2022-11-13T17:35:38.689Z,57.40
2022-11-13T17:38:26.396Z,57.12
2022-11-13T17:41:13.273Z,57.57
2022-11-13T17:44:01.526Z,57.35
2022-11-13T17:46:48.569Z,57.41
2022-11-13T17:49:34.950Z,57.24
2022-11-13T17:52:21.421Z,56.85
2022-11-13T17:55:10.801Z,57.13
2022-11-13T17:58:00.761Z,56.95
2022-11-13T18:00:47.069Z,56.86
2022-11-13T18:03:33.882Z,56.70
2022-11-13T18:06:22.929Z,56.83
2022-11-13T18:09:10.725Z,56.61
2022-11-13T18:11:56.571Z,56.73
2022-11-13T18:14:43.903Z,56.78
2022-11-13T18:17:30.527Z,56.85
2022-11-13T18:20:17.039Z,56.52
2022-11-13T18:23:03.421Z,56.65
2022-11-13T18:25:50.076Z,56.39
2022-11-13T18:28:36.898Z,57.14
2022-11-13T18:31:23.824Z,57.01
2022-11-13T18:34:13.141Z,57.20
2022-11-13T18:36:59.937Z,57.09
2022-11-13T18:39:46.035Z,57.08
2022-11-13T18:42:32.312Z,56.75
2022-11-13T18:45:18.565Z,56.60
2022-11-13T18:48:05.223Z,56.64
2022-11-13T18:50:57.618Z,56.87
2022-11-13T18:53:45.767Z,56.44
2022-11-13T18:56:35.127Z,56.34
2022-11-13T18:59:21.309Z,56.24
2022-11-13T19:02:09.371Z,56.60
2022-11-13T19:04:56.054Z,56.92
2022-11-13T19:07:44.404Z,56.69
2022-11-13T19:10:33.667Z,56.06
2022-11-13T19:13:19.940Z,56.37
2022-11-13T19:16:14.938Z,56.31
2022-11-13T19:19:05.278Z,56.36
2022-11-13T19:21:52.360Z,55.98
2022-11-13T19:24:39.189Z,55.98
2022-11-13T19:27:25.575Z,56.06
2022-11-13T19:30:14.327Z,56.16
2022-11-13T19:33:00.801Z,56.12
2022-11-13T19:35:47.148Z,55.93
2022-11-13T19:38:33.310Z,55.76
2022-11-13T19:41:19.441Z,56.16
2022-11-13T19:44:06.666Z,55.93
2022-11-13T19:46:53.565Z,55.98
2022-11-13T19:49:39.911Z,55.99
2022-11-13T19:52:25.967Z,55.60
2022-11-13T19:55:12.319Z,55.66
2022-11-13T19:57:58.319Z,55.77
2022-11-13T20:00:45.287Z,55.72
2022-11-13T20:03:31.759Z,55.34
2022-11-13T20:06:22.297Z,55.66
2022-11-13T20:09:08.707Z,55.49
2022-11-13T20:11:55.483Z,55.23
2022-11-13T20:14:41.887Z,55.28
2022-11-13T20:17:28.058Z,55.22
2022-11-13T20:20:14.748Z,55.44
2022-11-13T20:23:01.224Z,55.09
2022-11-13T20:25:56.398Z,55.19
2022-11-13T20:28:43.044Z,55.41
2022-11-13T20:31:31.194Z,55.37
2022-11-13T20:34:18.056Z,55.22
2022-11-13T20:37:04.486Z,55.29
2022-11-13T20:39:50.684Z,55.26
2022-11-13T20:42:37.954Z,55.22
2022-11-13T20:45:24.409Z,54.90
2022-11-13T20:48:10.779Z,54.97
2022-11-13T20:51:04.687Z,54.72
2022-11-13T20:53:51.711Z,55.22
2022-11-13T20:56:37.926Z,54.85
2022-11-13T20:59:24.198Z,54.90
2022-11-13T21:02:10.760Z,54.99
2022-11-13T21:04:59.238Z,55.13
2022-11-13T21:07:45.323Z,55.04
2022-11-13T21:10:33.485Z,55.23
2022-11-13T21:13:19.921Z,55.02
2022-11-13T21:16:09.019Z,54.95
2022-11-13T21:18:59.585Z,55.03
2022-11-13T21:21:45.609Z,54.80
2022-11-13T21:24:33.371Z,54.62
2022-11-13T21:27:19.774Z,55.08
2022-11-13T21:30:06.506Z,54.80
2022-11-13T21:32:52.614Z,55.09
2022-11-13T21:35:38.821Z,54.87
2022-11-13T21:38:25.188Z,54.97
2022-11-13T21:41:23.814Z,55.32
2022-11-13T21:44:11.007Z,55.06
2022-11-13T21:46:57.388Z,55.95
2022-11-13T21:49:43.849Z,55.83
2022-11-13T21:52:31.149Z,55.77
2022-11-13T21:55:17.411Z,55.44
2022-11-13T21:58:03.531Z,55.53
2022-11-13T22:00:50.088Z,55.31
2022-11-13T22:03:36.772Z,55.34
2022-11-13T22:06:36.267Z,55.25
2022-11-13T22:09:25.495Z,55.25
2022-11-13T22:12:13.420Z,55.27
2022-11-13T22:14:59.925Z,55.31
2022-11-13T22:17:48.831Z,55.11
2022-11-13T22:20:35.035Z,55.23
2022-11-13T22:23:21.929Z,55.04
2022-11-13T22:26:14.169Z,54.80
2022-11-13T22:29:01.046Z,55.00
2022-11-13T22:31:48.275Z,55.36
2022-11-13T22:34:34.471Z,55.17
2022-11-13T22:37:21.052Z,54.86
2022-11-13T22:40:07.811Z,54.64
2022-11-13T22:42:56.866Z,55.01
2022-11-13T22:45:43.650Z,54.93
2022-11-13T22:48:30.645Z,54.88
2022-11-13T22:51:34.821Z,54.67
2022-11-13T22:54:22.015Z,55.11
2022-11-13T22:57:09.144Z,55.17
2022-11-13T22:59:55.630Z,55.09
2022-11-13T23:02:46.927Z,54.97
2022-11-13T23:05:36.411Z,55.07
2022-11-13T23:08:23.413Z,54.85
2022-11-13T23:11:15.502Z,55.07
2022-11-13T23:14:04.571Z,55.00
2022-11-13T23:16:50.957Z,54.79
2022-11-13T23:19:37.501Z,54.98
2022-11-13T23:22:24.298Z,56.24
2022-11-13T23:25:11.657Z,55.64
2022-11-13T23:27:58.071Z,55.39
2022-11-13T23:30:44.496Z,55.10
2022-11-13T23:33:31.307Z,54.90
2022-11-13T23:36:18.439Z,55.11
2022-11-13T23:39:04.456Z,55.29
2022-11-13T23:41:50.893Z,55.33
2022-11-13T23:44:37.261Z,55.02
2022-11-13T23:47:23.412Z,55.16
2022-11-13T23:50:10.914Z,55.35
2022-11-13T23:52:58.141Z,55.14
2022-11-13T23:55:45.244Z,55.27
2022-11-13T23:58:32.587Z,55.17
